KMHK/MHK METAR and TAF weather

Enter ICAO airport designator
Station Type Date Time Source
KMHK METAR 2019/06/19 00:24 UTC NOAA

KMHK 190024Z 07006KT 10SM SCT009 OVC015 20/18 A2984 RMK AO2 LTG DSNT SE T02000183 $


Station Type Date Time Source
KMHK Decoded METAR 2019/06/19 00:24 UTC NOAA

MANHATTAN REGIONAL AIRPORT, KS, United States (KMHK) 39-08N 96-41W 317M
Jun 18, 2019 - 08:24 PM EDT / 2019.06.19 0024 UTC
Wind: from the ENE (070 degrees) at 7 MPH (6 KT):0
Visibility: 10 mile(s):0
Sky conditions: overcast
Weather: Lightning observed
Temperature: 68.0 F (20.0 C)
Dew Point: 64.9 F (18.3 C)
Relative Humidity: 89%
Pressure (altimeter): 29.84 in. Hg (1010 hPa)
ob: KMHK 190024Z 07006KT 10SM SCT009 OVC015 20/18 A2984 RMK AO2 LTG DSNT SE T02000183
cycle: 0

Station Type Date Time Source
KMHK TAF 2019/06/18 22:36 UTC NOAA

TAF
AMD KMHK 182133Z 1822/1918 VRB06KT P6SM VCSH SCT050 OVC090
FM190100 05007KT 6SM SHRA OVC030
FM190600 VRB07KT 3SM SHRA OVC009
FM191300 04007KT P6SM OVC015

Example: see airport list